createdAt,value
2017-02-01T00:00:23.843Z,3.31
2017-02-01T00:01:23.838Z,3.39
2017-02-01T00:02:23.815Z,3.39
2017-02-01T00:03:23.799Z,3.39
2017-02-01T00:04:23.791Z,3.47
2017-02-01T00:05:23.775Z,3.51
2017-02-01T00:06:23.763Z,3.57
2017-02-01T00:07:23.746Z,3.57
2017-02-01T00:08:23.731Z,3.52
2017-02-01T00:09:23.724Z,3.58
2017-02-01T00:10:23.709Z,3.62
2017-02-01T00:11:23.692Z,3.58
2017-02-01T00:12:23.682Z,3.65
2017-02-01T00:13:23.666Z,3.65
2017-02-01T00:14:23.652Z,3.52
2017-02-01T00:15:23.639Z,3.65
2017-02-01T00:16:23.625Z,3.62
2017-02-01T00:17:23.615Z,3.69
2017-02-01T00:18:23.601Z,3.72
2017-02-01T00:19:23.584Z,3.66
2017-02-01T00:20:23.195Z,3.76
2017-02-01T00:21:23.556Z,3.69
2017-02-01T00:22:23.546Z,3.6
2017-02-01T00:23:23.532Z,3.52
2017-02-01T00:24:23.518Z,3.33
2017-02-01T00:25:23.510Z,3.4
2017-02-01T00:26:23.493Z,3.47
2017-02-01T00:27:23.096Z,3.42
2017-02-01T00:28:23.465Z,3.4
2017-02-01T00:29:23.451Z,3.45
2017-02-01T00:30:23.436Z,3.42
2017-02-01T00:31:23.453Z,3.43
2017-02-01T00:32:23.409Z,3.52
2017-02-01T00:33:23.398Z,3.5
2017-02-01T00:34:22.996Z,3.4
2017-02-01T00:35:23.367Z,3.4
2017-02-01T00:36:23.357Z,3.33
2017-02-01T00:37:23.344Z,3.31
2017-02-01T00:38:23.326Z,3.28
2017-02-01T00:39:23.313Z,3.4
2017-02-01T00:40:23.302Z,3.31
2017-02-01T00:41:23.288Z,3.31
2017-02-01T00:42:23.274Z,3.35
2017-02-01T00:43:23.263Z,3.33
2017-02-01T00:44:23.249Z,3.24
2017-02-01T00:45:23.239Z,3.26
2017-02-01T00:46:23.222Z,3.2
2017-02-01T00:47:23.211Z,3.06
2017-02-01T00:48:22.805Z,2.93
2017-02-01T00:49:23.182Z,2.89
2017-02-01T00:50:22.781Z,2.97
2017-02-01T00:51:23.185Z,2.87
2017-02-01T00:52:23.138Z,2.81
2017-02-01T00:53:23.125Z,2.82
2017-02-01T00:54:22.725Z,2.85
2017-02-01T00:55:23.099Z,2.9
2017-02-01T00:56:23.086Z,2.87
2017-02-01T00:57:23.069Z,2.85
2017-02-01T00:58:23.061Z,2.9
2017-02-01T00:59:23.074Z,2.85
2017-02-01T01:00:22.643Z,2.85
2017-02-01T01:01:23.012Z,2.74
2017-02-01T01:02:23.001Z,2.67
2017-02-01T01:03:22.986Z,2.75
2017-02-01T01:04:23.012Z,2.64
2017-02-01T01:05:22.958Z,2.75
2017-02-01T01:06:22.944Z,2.69
2017-02-01T01:07:22.929Z,2.81
2017-02-01T01:08:22.916Z,2.84
2017-02-01T01:09:22.908Z,2.9
2017-02-01T01:10:22.891Z,2.87
2017-02-01T01:11:22.878Z,2.95
2017-02-01T01:12:22.860Z,2.97
2017-02-01T01:13:22.847Z,2.96
2017-02-01T01:14:22.835Z,2.97
2017-02-01T01:15:22.822Z,2.77
2017-02-01T01:16:22.806Z,2.84
2017-02-01T01:17:22.795Z,2.85
2017-02-01T01:18:22.779Z,2.84
2017-02-01T01:19:22.763Z,2.74
2017-02-01T01:20:22.752Z,2.75
2017-02-01T01:21:22.739Z,2.72
2017-02-01T01:22:22.341Z,2.69
2017-02-01T01:23:22.709Z,2.69
2017-02-01T01:24:22.696Z,2.69
2017-02-01T01:25:22.680Z,2.71
2017-02-01T01:26:22.292Z,2.82
2017-02-01T01:27:22.679Z,2.89
2017-02-01T01:28:22.640Z,2.93
2017-02-01T01:29:22.239Z,3.05
2017-02-01T01:30:22.611Z,3.05
2017-02-01T01:31:22.597Z,3.11
2017-02-01T01:32:21.808Z,3.08
2017-02-01T01:33:22.568Z,3.1
2017-02-01T01:34:22.559Z,3.08
2017-02-01T01:35:22.537Z,3.03
2017-02-01T01:36:22.526Z,3.17
2017-02-01T01:37:22.528Z,3.06
2017-02-01T01:38:22.497Z,3.03
2017-02-01T01:39:22.484Z,3.18
2017-02-01T01:40:22.471Z,3.21
2017-02-01T01:41:22.454Z,3.17
2017-02-01T01:42:22.444Z,3.24
2017-02-01T01:43:22.428Z,3.29
2017-02-01T01:44:22.413Z,3.23
2017-02-01T01:45:22.401Z,3.29
2017-02-01T01:46:21.998Z,3.18
2017-02-01T01:47:22.370Z,3.29
2017-02-01T01:48:21.972Z,3.28
2017-02-01T01:49:22.344Z,3.29
2017-02-01T01:50:22.333Z,3.28
2017-02-01T01:51:22.315Z,3.03
2017-02-01T01:52:22.303Z,3.03
2017-02-01T01:53:22.288Z,3.03
2017-02-01T01:54:22.278Z,2.89
2017-02-01T01:55:22.266Z,2.89
2017-02-01T01:56:22.246Z,2.85
2017-02-01T01:57:22.233Z,2.85
2017-02-01T01:58:22.219Z,2.87
2017-02-01T01:59:21.822Z,2.82
2017-02-01T02:00:22.192Z,2.81
2017-02-01T02:01:22.177Z,2.74
2017-02-01T02:02:21.779Z,2.69
2017-02-01T02:03:22.150Z,2.61
2017-02-01T02:04:21.749Z,2.64
2017-02-01T02:05:21.736Z,2.64
2017-02-01T02:06:22.110Z,2.63
2017-02-01T02:07:22.095Z,2.6
2017-02-01T02:08:22.107Z,2.75
2017-02-01T02:09:22.070Z,2.71
2017-02-01T02:10:21.667Z,2.84
2017-02-01T02:11:21.654Z,2.82
2017-02-01T02:12:22.023Z,2.84
2017-02-01T02:13:21.238Z,2.95
2017-02-01T02:14:21.993Z,2.96
2017-02-01T02:15:21.990Z,2.95
2017-02-01T02:16:21.967Z,2.96
2017-02-01T02:17:21.953Z,2.97
2017-02-01T02:18:21.940Z,2.92
2017-02-01T02:19:21.540Z,2.87
2017-02-01T02:20:21.915Z,2.63
2017-02-01T02:21:21.512Z,2.74
2017-02-01T02:22:21.883Z,2.69
2017-02-01T02:23:21.869Z,2.63
2017-02-01T02:24:21.473Z,2.52
2017-02-01T02:25:21.460Z,2.49
2017-02-01T02:26:21.444Z,2.6
2017-02-01T02:27:21.812Z,2.53
2017-02-01T02:28:21.800Z,2.48
2017-02-01T02:29:21.787Z,2.54
2017-02-01T02:30:21.771Z,2.52
2017-02-01T02:31:21.763Z,2.49
2017-02-01T02:32:21.751Z,2.45
2017-02-01T02:33:21.732Z,2.63
2017-02-01T02:34:21.718Z,2.59
2017-02-01T02:35:21.730Z,2.59
2017-02-01T02:36:21.692Z,2.61
2017-02-01T02:37:21.672Z,2.56
2017-02-01T02:38:21.660Z,2.59
2017-02-01T02:39:21.264Z,2.72
2017-02-01T02:40:21.633Z,2.79
2017-02-01T02:41:21.620Z,2.77
2017-02-01T02:42:21.214Z,2.84
2017-02-01T02:43:21.589Z,2.79
2017-02-01T02:44:21.574Z,2.85
2017-02-01T02:45:21.559Z,2.87
2017-02-01T02:46:21.549Z,2.79
2017-02-01T02:47:21.559Z,2.89
2017-02-01T02:48:21.517Z,2.9
2017-02-01T02:49:21.507Z,2.9
2017-02-01T02:50:21.491Z,2.85
2017-02-01T02:51:21.089Z,2.92
2017-02-01T02:52:21.462Z,2.85
2017-02-01T02:53:21.458Z,2.82
2017-02-01T02:54:21.050Z,2.77
2017-02-01T02:55:21.421Z,2.66
2017-02-01T02:56:21.409Z,2.77
2017-02-01T02:57:21.397Z,2.67
2017-02-01T02:58:21.380Z,2.71
2017-02-01T02:59:21.371Z,2.66
2017-02-01T03:00:21.360Z,2.6
2017-02-01T03:01:21.340Z,2.64
2017-02-01T03:02:21.324Z,2.56
2017-02-01T03:03:21.345Z,2.61
2017-02-01T03:04:21.295Z,2.59
2017-02-01T03:05:21.286Z,2.6
2017-02-01T03:06:20.890Z,2.63
2017-02-01T03:07:21.287Z,2.69
2017-02-01T03:08:21.275Z,2.69
2017-02-01T03:09:21.229Z,2.66
2017-02-01T03:10:21.215Z,2.81
2017-02-01T03:11:21.198Z,2.81
2017-02-01T03:12:21.194Z,2.69
2017-02-01T03:13:21.172Z,2.59
2017-02-01T03:14:21.157Z,2.61
2017-02-01T03:15:21.147Z,2.46
2017-02-01T03:16:21.133Z,2.59
2017-02-01T03:17:21.120Z,2.53
2017-02-01T03:18:21.105Z,2.57
2017-02-01T03:19:21.088Z,2.48
2017-02-01T03:20:21.072Z,2.53
2017-02-01T03:21:21.061Z,2.56
2017-02-01T03:22:21.045Z,2.42
2017-02-01T03:23:21.033Z,2.41
2017-02-01T03:24:21.018Z,2.52
2017-02-01T03:25:21.009Z,2.41
2017-02-01T03:26:20.603Z,2.38
2017-02-01T03:27:20.975Z,2.35
2017-02-01T03:28:20.577Z,2.38
2017-02-01T03:29:20.948Z,2.35
2017-02-01T03:30:20.938Z,2.43
2017-02-01T03:31:20.918Z,2.41
2017-02-01T03:32:20.904Z,2.36
2017-02-01T03:33:20.893Z,2.35
2017-02-01T03:34:20.873Z,2.39
2017-02-01T03:35:20.861Z,2.34
2017-02-01T03:36:20.848Z,2.39
2017-02-01T03:37:20.833Z,2.28
2017-02-01T03:38:20.820Z,2.25
2017-02-01T03:39:20.804Z,2.39
2017-02-01T03:40:20.797Z,2.38
2017-02-01T03:41:20.777Z,2.41
2017-02-01T03:42:20.771Z,2.41
2017-02-01T03:43:20.750Z,2.31
2017-02-01T03:44:20.734Z,2.38
2017-02-01T03:45:20.722Z,2.36
2017-02-01T03:46:20.708Z,2.42
2017-02-01T03:47:20.697Z,2.36
2017-02-01T03:48:20.679Z,2.38
2017-02-01T03:49:20.663Z,2.38
2017-02-01T03:50:20.655Z,2.38
2017-02-01T03:51:20.636Z,2.34
2017-02-01T03:52:20.621Z,2.36
2017-02-01T03:53:20.221Z,2.27
2017-02-01T03:54:20.599Z,2.36
2017-02-01T03:55:20.581Z,2.27
2017-02-01T03:56:20.565Z,2.35
2017-02-01T03:57:20.550Z,2.31
2017-02-01T03:58:20.542Z,2.38
2017-02-01T03:59:20.522Z,2.38
2017-02-01T04:00:20.509Z,2.25
2017-02-01T04:01:20.498Z,2.23
2017-02-01T04:02:20.832Z,2.2
2017-02-01T04:03:20.468Z,2.36
2017-02-01T04:04:20.455Z,2.31
2017-02-01T04:05:20.438Z,2.27
2017-02-01T04:06:20.425Z,2.25
2017-02-01T04:07:20.411Z,2.24
2017-02-01T04:08:20.394Z,2.36
2017-02-01T04:09:20.384Z,2.28
2017-02-01T04:10:20.369Z,2.36
2017-02-01T04:11:19.968Z,2.49
2017-02-01T04:12:19.956Z,2.43
2017-02-01T04:13:20.332Z,2.42
2017-02-01T04:14:20.309Z,2.36
2017-02-01T04:15:20.294Z,2.35
2017-02-01T04:16:20.285Z,2.41
2017-02-01T04:17:20.266Z,2.34
2017-02-01T04:18:20.252Z,2.41
2017-02-01T04:19:20.240Z,2.36
2017-02-01T04:20:20.227Z,2.23
2017-02-01T04:21:20.210Z,2.17
2017-02-01T04:22:20.196Z,2.2
2017-02-01T04:23:20.182Z,2.23
2017-02-01T04:24:20.167Z,2.25
2017-02-01T04:25:20.154Z,2.2
2017-02-01T04:26:20.135Z,2.3
2017-02-01T04:27:20.124Z,2.39
2017-02-01T04:28:20.110Z,2.43
2017-02-01T04:29:20.107Z,2.45
2017-02-01T04:30:19.699Z,2.48
2017-02-01T04:31:20.069Z,2.42
2017-02-01T04:32:20.055Z,2.54
2017-02-01T04:33:20.039Z,2.49
2017-02-01T04:34:20.028Z,2.49
2017-02-01T04:35:19.632Z,2.57
2017-02-01T04:36:20.004Z,2.59
2017-02-01T04:37:19.983Z,2.6
2017-02-01T04:38:19.972Z,2.6
2017-02-01T04:39:19.954Z,2.61
2017-02-01T04:40:19.940Z,2.61
2017-02-01T04:41:19.551Z,2.74
2017-02-01T04:42:19.911Z,2.72
2017-02-01T04:43:19.899Z,2.71
2017-02-01T04:44:19.883Z,2.72
2017-02-01T04:45:19.869Z,2.67
2017-02-01T04:46:19.856Z,2.66
2017-02-01T04:47:19.842Z,2.71
2017-02-01T04:48:19.825Z,2.75
2017-02-01T04:49:19.813Z,2.74
2017-02-01T04:50:19.800Z,2.67
2017-02-01T04:51:19.784Z,2.69
2017-02-01T04:52:19.777Z,2.72
2017-02-01T04:53:19.756Z,2.75
2017-02-01T04:54:19.744Z,2.69
2017-02-01T04:55:19.727Z,2.74
2017-02-01T04:56:19.714Z,2.85
2017-02-01T04:57:19.702Z,2.84
2017-02-01T04:58:19.685Z,2.79
2017-02-01T04:59:19.670Z,2.84
2017-02-01T05:00:19.660Z,2.85
2017-02-01T05:01:19.642Z,2.81
2017-02-01T05:02:19.626Z,2.85
2017-02-01T05:03:19.617Z,2.85
2017-02-01T05:04:19.600Z,2.84
2017-02-01T05:05:19.587Z,2.82
2017-02-01T05:06:19.571Z,2.82
2017-02-01T05:07:19.555Z,2.71
2017-02-01T05:08:19.543Z,2.72
2017-02-01T05:09:19.538Z,2.6
2017-02-01T05:10:19.515Z,2.57
2017-02-01T05:11:19.500Z,2.53
2017-02-01T05:12:19.487Z,2.49
2017-02-01T05:13:19.471Z,2.39
2017-02-01T05:14:19.457Z,2.41
2017-02-01T05:15:19.443Z,2.41
2017-02-01T05:16:19.429Z,2.39
2017-02-01T05:17:19.412Z,2.39
2017-02-01T05:18:19.399Z,2.39
2017-02-01T05:19:19.384Z,2.38
2017-02-01T05:20:19.371Z,2.25
2017-02-01T05:21:19.355Z,2.35
2017-02-01T05:22:19.350Z,2.36
2017-02-01T05:23:19.327Z,2.28
2017-02-01T05:24:18.926Z,2.27
2017-02-01T05:25:19.299Z,2.3
2017-02-01T05:26:19.285Z,2.38
2017-02-01T05:27:19.267Z,2.28
2017-02-01T05:28:19.255Z,2.36
2017-02-01T05:29:19.242Z,2.28
2017-02-01T05:30:19.228Z,2.38
2017-02-01T05:31:19.212Z,2.38
2017-02-01T05:32:19.197Z,2.3
2017-02-01T05:33:19.186Z,2.28
2017-02-01T05:34:19.166Z,2.39
2017-02-01T05:35:19.159Z,2.28
2017-02-01T05:36:19.136Z,2.28
2017-02-01T05:37:19.123Z,2.2
2017-02-01T05:38:19.118Z,2.21
2017-02-01T05:39:19.095Z,2.27
2017-02-01T05:40:19.081Z,2.27
2017-02-01T05:41:19.073Z,2.27
2017-02-01T05:42:19.051Z,2.2
2017-02-01T05:43:19.040Z,2.2
2017-02-01T05:44:19.020Z,2.18
2017-02-01T05:45:19.009Z,2.16
2017-02-01T05:46:18.994Z,2.16
2017-02-01T05:47:18.984Z,2.1
2017-02-01T05:48:18.966Z,2.21
2017-02-01T05:49:18.950Z,2.17
2017-02-01T05:50:18.955Z,2.17
2017-02-01T05:51:18.922Z,2.12
2017-02-01T05:52:18.908Z,2.17
2017-02-01T05:53:18.502Z,2.18
2017-02-01T05:54:18.903Z,2.24
2017-02-01T05:55:18.860Z,2.24
2017-02-01T05:56:18.844Z,2.3
2017-02-01T05:57:18.831Z,2.17
2017-02-01T05:58:18.817Z,2.18
2017-02-01T05:59:18.801Z,2.17
2017-02-01T06:00:18.788Z,2.24
2017-02-01T06:01:18.782Z,2.16
2017-02-01T06:02:18.756Z,2.25
2017-02-01T06:03:18.746Z,2.21
2017-02-01T06:04:18.730Z,2.25
2017-02-01T06:05:18.715Z,2.25
2017-02-01T06:06:18.701Z,2.23
2017-02-01T06:07:18.700Z,2.25
2017-02-01T06:08:18.672Z,2.16
2017-02-01T06:09:18.659Z,2.17
2017-02-01T06:10:18.650Z,2.23
2017-02-01T06:11:18.629Z,2.23
2017-02-01T06:12:18.616Z,2.27
2017-02-01T06:13:18.598Z,2.27
2017-02-01T06:14:18.587Z,2.2
2017-02-01T06:15:18.568Z,2.3
2017-02-01T06:16:18.557Z,2.25
2017-02-01T06:17:18.539Z,2.34
2017-02-01T06:18:18.528Z,2.35
2017-02-01T06:19:18.514Z,2.39
2017-02-01T06:20:18.497Z,2.35
2017-02-01T06:21:18.481Z,2.36
2017-02-01T06:22:18.472Z,2.38
2017-02-01T06:23:18.455Z,2.42
2017-02-01T06:24:18.437Z,2.38
2017-02-01T06:25:18.422Z,2.35
2017-02-01T06:26:18.408Z,2.39
2017-02-01T06:27:18.394Z,2.41
2017-02-01T06:28:18.381Z,2.43
2017-02-01T06:29:18.374Z,2.39
2017-02-01T06:30:17.967Z,2.35
2017-02-01T06:31:18.336Z,2.38
2017-02-01T06:32:18.323Z,2.39
2017-02-01T06:33:17.921Z,2.48
2017-02-01T06:34:18.294Z,2.43
2017-02-01T06:35:18.276Z,2.41
2017-02-01T06:36:18.265Z,2.39
2017-02-01T06:37:18.249Z,2.39
2017-02-01T06:38:18.233Z,2.41
2017-02-01T06:39:18.221Z,2.49
2017-02-01T06:40:18.206Z,2.48
2017-02-01T06:41:18.190Z,2.45
2017-02-01T06:42:18.181Z,2.39
2017-02-01T06:43:17.776Z,2.41
2017-02-01T06:44:18.148Z,2.38
2017-02-01T06:45:18.134Z,2.39
2017-02-01T06:46:18.117Z,2.41
2017-02-01T06:47:18.104Z,2.39
2017-02-01T06:48:18.089Z,2.41
2017-02-01T06:49:18.076Z,2.48
2017-02-01T06:50:18.060Z,2.43
2017-02-01T06:51:18.045Z,2.43
2017-02-01T06:52:18.030Z,2.52
2017-02-01T06:53:18.027Z,2.43
2017-02-01T06:54:17.615Z,2.38
2017-02-01T06:55:17.601Z,2.41
2017-02-01T06:56:17.585Z,2.36
2017-02-01T06:57:17.965Z,2.36
2017-02-01T06:58:17.558Z,2.38
2017-02-01T06:59:17.928Z,2.42
2017-02-01T07:00:17.918Z,2.39
2017-02-01T07:01:17.903Z,2.39
2017-02-01T07:02:17.888Z,2.45
2017-02-01T07:03:17.488Z,2.48
2017-02-01T07:04:17.856Z,2.45
2017-02-01T07:05:17.842Z,2.54
2017-02-01T07:06:17.831Z,2.41
2017-02-01T07:07:17.813Z,2.43
2017-02-01T07:08:17.797Z,2.41
2017-02-01T07:09:17.784Z,2.49
2017-02-01T07:10:17.772Z,2.52
2017-02-01T07:11:17.758Z,2.48
2017-02-01T07:12:17.356Z,2.49
2017-02-01T07:13:17.747Z,2.49
2017-02-01T07:14:17.714Z,2.48
2017-02-01T07:15:17.698Z,2.49
2017-02-01T07:16:17.690Z,2.53
2017-02-01T07:17:17.673Z,2.57
2017-02-01T07:18:17.658Z,2.59
2017-02-01T07:19:17.638Z,2.54
2017-02-01T07:20:17.626Z,2.59
2017-02-01T07:21:17.633Z,2.59
2017-02-01T07:22:17.604Z,2.57
2017-02-01T07:23:17.584Z,2.6
2017-02-01T07:24:17.571Z,2.6
2017-02-01T07:25:17.560Z,2.54
2017-02-01T07:26:17.546Z,2.71
2017-02-01T07:27:17.527Z,2.77
2017-02-01T07:28:17.515Z,2.66
2017-02-01T07:29:17.499Z,2.67
2017-02-01T07:30:17.484Z,2.74
2017-02-01T07:31:17.085Z,2.75
2017-02-01T07:32:17.454Z,2.67
2017-02-01T07:33:17.446Z,2.75
2017-02-01T07:34:17.425Z,2.66
2017-02-01T07:35:17.412Z,2.69
2017-02-01T07:36:17.012Z,2.71
2017-02-01T07:37:17.382Z,2.84
2017-02-01T07:38:17.374Z,2.82
2017-02-01T07:39:17.360Z,2.9
2017-02-01T07:40:17.347Z,2.92
2017-02-01T07:41:17.329Z,2.99
2017-02-01T07:42:17.310Z,3.02
2017-02-01T07:43:17.296Z,3.1
2017-02-01T07:44:17.288Z,3.18
2017-02-01T07:45:17.269Z,3.11
2017-02-01T07:46:17.296Z,3.08
2017-02-01T07:47:17.243Z,3.15
2017-02-01T07:48:17.230Z,3.18
2017-02-01T07:49:17.214Z,3.17
2017-02-01T07:50:17.201Z,3.21
2017-02-01T07:51:17.188Z,3.21
2017-02-01T07:52:16.786Z,3.35
2017-02-01T07:53:17.163Z,3.28
2017-02-01T07:54:17.144Z,3.35
2017-02-01T07:55:17.134Z,3.33
2017-02-01T07:56:17.118Z,3.36
2017-02-01T07:57:17.103Z,3.5
2017-02-01T07:58:17.093Z,3.58
2017-02-01T07:59:17.079Z,3.54
2017-02-01T08:00:17.062Z,3.62
2017-02-01T08:01:17.056Z,3.61
2017-02-01T08:02:17.039Z,3.66
2017-02-01T08:03:17.030Z,3.62
2017-02-01T08:04:17.008Z,3.61
2017-02-01T08:05:16.998Z,3.62
2017-02-01T08:06:16.981Z,3.69
2017-02-01T08:07:16.969Z,3.68
2017-02-01T08:08:16.955Z,3.7
2017-02-01T08:09:16.944Z,3.72
2017-02-01T08:10:16.927Z,3.7
2017-02-01T08:11:16.920Z,3.72
2017-02-01T08:12:16.905Z,3.76
2017-02-01T08:13:16.888Z,3.87
2017-02-01T08:14:16.876Z,3.87
2017-02-01T08:15:16.864Z,3.91
2017-02-01T08:16:16.460Z,3.96
2017-02-01T08:17:16.834Z,4.02
2017-02-01T08:18:16.825Z,4
2017-02-01T08:19:17.111Z,4
2017-02-01T08:20:16.798Z,3.98
2017-02-01T08:21:16.395Z,4.09
2017-02-01T08:22:16.768Z,4.14
2017-02-01T08:23:16.758Z,4.18
2017-02-01T08:24:16.741Z,4.15
2017-02-01T08:25:16.373Z,4.16
2017-02-01T08:26:16.720Z,4.05
2017-02-01T08:27:16.706Z,4.09
2017-02-01T08:28:16.690Z,4.15
2017-02-01T08:29:16.684Z,4.23
2017-02-01T08:30:16.672Z,4.26
2017-02-01T08:31:16.655Z,4.23
2017-02-01T08:32:16.638Z,4.24
2017-02-01T08:33:16.243Z,4.26
2017-02-01T08:34:16.645Z,4.26
2017-02-01T08:35:16.635Z,4.26
2017-02-01T08:36:16.588Z,4.24
2017-02-01T08:37:16.575Z,4.23
2017-02-01T08:38:16.561Z,4.26
2017-02-01T08:39:16.552Z,4.27
2017-02-01T08:40:16.535Z,4.29
2017-02-01T08:41:16.524Z,4.23
2017-02-01T08:42:16.511Z,4.16
2017-02-01T08:43:16.501Z,4.18
2017-02-01T08:44:16.486Z,4.2
2017-02-01T08:45:16.473Z,4.2
2017-02-01T08:46:16.461Z,4.14
2017-02-01T08:47:16.449Z,4.15
2017-02-01T08:48:16.442Z,4.09
2017-02-01T08:49:16.421Z,4.16
2017-02-01T08:50:16.442Z,4.08
2017-02-01T08:51:16.398Z,4.06
2017-02-01T08:52:16.384Z,4.06
2017-02-01T08:53:16.370Z,4.08
2017-02-01T08:54:16.364Z,4
2017-02-01T08:55:16.350Z,4.05
2017-02-01T08:56:16.330Z,4.05
2017-02-01T08:57:16.317Z,4.12
2017-02-01T08:58:16.305Z,4.15
2017-02-01T08:59:15.910Z,4.18
2017-02-01T09:00:16.279Z,4.2
2017-02-01T09:01:16.271Z,4.15
2017-02-01T09:02:16.252Z,4.2
2017-02-01T09:03:16.240Z,4.14
2017-02-01T09:04:16.231Z,4.29
2017-02-01T09:05:16.213Z,4.23
2017-02-01T09:06:16.201Z,4.29
2017-02-01T09:07:16.187Z,4.26
2017-02-01T09:08:16.175Z,4.23
2017-02-01T09:09:16.168Z,4.32
2017-02-01T09:10:16.148Z,4.41
2017-02-01T09:11:16.139Z,4.41
2017-02-01T09:12:16.127Z,4.51
2017-02-01T09:13:16.113Z,4.47
2017-02-01T09:14:16.099Z,4.47
2017-02-01T09:15:16.090Z,4.51
2017-02-01T09:16:16.073Z,4.65
2017-02-01T09:17:16.095Z,4.47
2017-02-01T09:18:16.048Z,4.51
2017-02-01T09:19:16.037Z,4.58
2017-02-01T09:20:16.023Z,4.69
2017-02-01T09:21:16.012Z,4.6
2017-02-01T09:22:16.000Z,4.66
2017-02-01T09:23:15.983Z,4.63
2017-02-01T09:24:15.972Z,4.7
2017-02-01T09:25:15.965Z,4.6
2017-02-01T09:26:15.949Z,4.66
2017-02-01T09:27:15.548Z,4.67
2017-02-01T09:28:15.923Z,4.67
2017-02-01T09:29:15.912Z,4.67
2017-02-01T09:30:15.897Z,4.8
2017-02-01T09:31:15.885Z,4.82
2017-02-01T09:32:15.879Z,4.8
2017-02-01T09:33:15.890Z,4.78
2017-02-01T09:34:15.850Z,4.91
2017-02-01T09:35:15.846Z,4.84
2017-02-01T09:36:15.825Z,4.8
2017-02-01T09:37:15.830Z,4.75
2017-02-01T09:38:15.805Z,4.89
2017-02-01T09:39:15.790Z,4.94
2017-02-01T09:40:15.775Z,4.97
2017-02-01T09:41:15.764Z,4.97
2017-02-01T09:42:15.751Z,5.02
2017-02-01T09:43:15.745Z,5.02
2017-02-01T09:44:15.732Z,5
2017-02-01T09:45:15.715Z,4.92
2017-02-01T09:46:15.705Z,4.99
2017-02-01T09:47:15.690Z,4.97
2017-02-01T09:48:15.685Z,5.04
2017-02-01T09:49:15.672Z,5.1
2017-02-01T09:50:15.655Z,5.06
2017-02-01T09:51:15.649Z,4.99
2017-02-01T09:52:15.630Z,5.02
2017-02-01T09:53:15.646Z,5
2017-02-01T09:54:15.605Z,5.1
2017-02-01T09:55:15.607Z,5.09
2017-02-01T09:56:15.612Z,5.12
2017-02-01T09:57:15.571Z,5.07
2017-02-01T09:58:15.568Z,5.21
2017-02-01T09:59:15.546Z,5.24
2017-02-01T10:00:15.534Z,5.17
2017-02-01T10:01:15.144Z,5.2
2017-02-01T10:02:15.512Z,5.13
2017-02-01T10:03:15.498Z,5.22
2017-02-01T10:04:15.492Z,5.17
2017-02-01T10:05:15.475Z,5.12
2017-02-01T10:06:15.469Z,5.12
2017-02-01T10:07:15.452Z,5.15
2017-02-01T10:08:15.441Z,5.15
2017-02-01T10:09:15.427Z,5.12
2017-02-01T10:10:15.416Z,5.07
2017-02-01T10:11:15.026Z,5.18
2017-02-01T10:12:15.394Z,5.25
2017-02-01T10:13:15.381Z,5.25
2017-02-01T10:14:15.407Z,5.13
2017-02-01T10:15:15.358Z,5.22
2017-02-01T10:16:15.346Z,5.1
2017-02-01T10:17:15.332Z,5.09
2017-02-01T10:18:15.328Z,5.06
2017-02-01T10:19:15.315Z,5.06
2017-02-01T10:20:15.296Z,5.1
2017-02-01T10:21:15.295Z,5.1
2017-02-01T10:22:15.273Z,5.09
2017-02-01T10:23:15.262Z,5.12
2017-02-01T10:24:14.862Z,5.1
2017-02-01T10:25:15.239Z,5.1
2017-02-01T10:26:14.840Z,5.09
2017-02-01T10:27:15.244Z,5.04
2017-02-01T10:28:15.202Z,5.03
2017-02-01T10:29:15.190Z,4.99
2017-02-01T10:30:15.178Z,5.03
2017-02-01T10:31:15.167Z,4.92
2017-02-01T10:32:15.156Z,4.94
2017-02-01T10:33:15.142Z,4.89
2017-02-01T10:34:15.131Z,4.91
2017-02-01T10:35:15.122Z,4.89
2017-02-01T10:36:15.112Z,4.86
2017-02-01T10:37:15.096Z,4.85
2017-02-01T10:38:15.084Z,4.75
2017-02-01T10:39:15.076Z,4.8
2017-02-01T10:40:15.059Z,4.88
2017-02-01T10:41:15.049Z,4.86
2017-02-01T10:42:15.034Z,4.88
2017-02-01T10:43:15.026Z,4.88
2017-02-01T10:44:15.013Z,4.78
2017-02-01T10:45:15.005Z,4.91
2017-02-01T10:46:14.600Z,4.88
2017-02-01T10:47:14.973Z,4.84
2017-02-01T10:48:14.966Z,4.91
2017-02-01T10:49:14.954Z,4.78
2017-02-01T10:50:14.552Z,4.86
2017-02-01T10:51:14.933Z,4.96
2017-02-01T10:52:14.918Z,4.92
2017-02-01T10:53:14.905Z,4.92
2017-02-01T10:54:14.507Z,4.94
2017-02-01T10:55:14.880Z,4.97
2017-02-01T10:56:14.867Z,4.94
2017-02-01T10:57:14.855Z,4.92
2017-02-01T10:58:14.847Z,4.94
2017-02-01T10:59:14.833Z,4.86
2017-02-01T11:00:14.817Z,4.78
2017-02-01T11:01:14.806Z,4.84
2017-02-01T11:02:14.798Z,4.94
2017-02-01T11:03:14.783Z,4.92
2017-02-01T11:04:14.789Z,4.97
2017-02-01T11:05:14.761Z,5.04
2017-02-01T11:06:13.977Z,5.09
2017-02-01T11:07:14.741Z,5.1
2017-02-01T11:08:14.725Z,5.25
2017-02-01T11:09:14.713Z,5.21
2017-02-01T11:10:14.314Z,5.35
2017-02-01T11:11:14.691Z,5.31
2017-02-01T11:12:14.290Z,5.38
2017-02-01T11:13:14.667Z,5.35
2017-02-01T11:14:14.660Z,5.46
2017-02-01T11:15:14.643Z,5.49
2017-02-01T11:16:14.245Z,5.48
2017-02-01T11:17:14.632Z,5.54
2017-02-01T11:18:14.605Z,5.6
2017-02-01T11:19:14.593Z,5.54
2017-02-01T11:20:14.200Z,5.65
2017-02-01T11:21:14.587Z,5.79
2017-02-01T11:22:14.597Z,5.71
2017-02-01T11:23:14.166Z,5.82
2017-02-01T11:24:14.538Z,5.89
2017-02-01T11:25:14.527Z,5.83
2017-02-01T11:26:14.515Z,5.85
2017-02-01T11:27:14.118Z,5.9
2017-02-01T11:28:14.497Z,5.89
2017-02-01T11:29:14.485Z,5.94
2017-02-01T11:30:14.472Z,5.96
2017-02-01T11:31:14.454Z,5.86
2017-02-01T11:32:14.452Z,5.94
2017-02-01T11:33:14.468Z,6
2017-02-01T11:34:14.038Z,5.91
2017-02-01T11:35:14.033Z,5.94
2017-02-01T11:36:14.400Z,5.96
2017-02-01T11:37:14.389Z,5.93
2017-02-01T11:38:14.386Z,5.99
2017-02-01T11:39:14.372Z,6.06
2017-02-01T11:40:14.357Z,5.93
2017-02-01T11:41:14.345Z,5.86
2017-02-01T11:42:14.337Z,5.91
2017-02-01T11:43:14.323Z,5.96
2017-02-01T11:44:14.313Z,5.9
2017-02-01T11:45:13.915Z,6.04
2017-02-01T11:46:14.295Z,6.06
2017-02-01T11:47:14.278Z,6.06
2017-02-01T11:48:14.267Z,6.06
2017-02-01T11:49:14.258Z,6.08
2017-02-01T11:50:13.859Z,6.15
2017-02-01T11:51:14.237Z,6.19
2017-02-01T11:52:14.233Z,6.3
2017-02-01T11:53:14.211Z,6.17
2017-02-01T11:54:14.208Z,6.33
2017-02-01T11:55:14.194Z,6.38
2017-02-01T11:56:14.188Z,6.4
2017-02-01T11:57:14.168Z,6.38
2017-02-01T11:58:14.157Z,6.52
2017-02-01T11:59:14.152Z,6.48
2017-02-01T12:00:14.136Z,6.46
2017-02-01T12:01:14.129Z,6.41
2017-02-01T12:02:13.726Z,6.4
2017-02-01T12:03:14.104Z,6.34
2017-02-01T12:04:13.708Z,6.37
2017-02-01T12:05:13.692Z,6.38
2017-02-01T12:06:13.681Z,6.37
2017-02-01T12:07:14.061Z,6.33
2017-02-01T12:08:13.667Z,6.41
2017-02-01T12:09:14.045Z,6.38
2017-02-01T12:10:14.033Z,6.37
2017-02-01T12:11:13.628Z,6.37
2017-02-01T12:12:13.229Z,6.31
2017-02-01T12:13:13.998Z,6.21
2017-02-01T12:14:13.593Z,6.17
2017-02-01T12:15:13.971Z,6.14
2017-02-01T12:16:13.575Z,6.11
2017-02-01T12:17:13.947Z,6.14
2017-02-01T12:18:13.936Z,6.09
2017-02-01T12:19:13.926Z,6.03
2017-02-01T12:20:13.916Z,6.12
2017-02-01T12:21:13.909Z,6.06
2017-02-01T12:22:13.896Z,6.08
2017-02-01T12:23:13.899Z,6.08
2017-02-01T12:24:13.881Z,6.04
2017-02-01T12:25:13.862Z,6.06
2017-02-01T12:26:13.847Z,5.99
2017-02-01T12:27:13.838Z,6.04
2017-02-01T12:28:13.824Z,6.03
2017-02-01T12:29:13.432Z,6
2017-02-01T12:30:13.417Z,6.01
2017-02-01T12:31:13.406Z,5.99
2017-02-01T12:32:13.783Z,6
2017-02-01T12:33:13.769Z,6.01
2017-02-01T12:34:13.761Z,6.04
2017-02-01T12:35:13.747Z,5.97
2017-02-01T12:36:13.741Z,6
2017-02-01T12:37:13.730Z,5.93
2017-02-01T12:38:13.714Z,5.93
2017-02-01T12:39:13.738Z,5.91
2017-02-01T12:40:13.691Z,5.91
2017-02-01T12:41:13.295Z,5.9
2017-02-01T12:42:13.670Z,5.99
2017-02-01T12:43:13.270Z,5.91
2017-02-01T12:44:13.650Z,5.97
2017-02-01T12:45:13.637Z,5.91
2017-02-01T12:46:13.626Z,5.93
2017-02-01T12:47:13.618Z,6.03
2017-02-01T12:48:12.830Z,5.99
2017-02-01T12:49:13.593Z,6.11
2017-02-01T12:50:13.199Z,6.08
2017-02-01T12:51:13.570Z,6.08
2017-02-01T12:52:13.565Z,6.11
2017-02-01T12:53:13.547Z,6.04
2017-02-01T12:54:13.538Z,6.08
2017-02-01T12:55:12.754Z,6.09
2017-02-01T12:56:13.518Z,6.08
2017-02-01T12:57:13.504Z,6.06
2017-02-01T12:58:13.495Z,6.08
2017-02-01T12:59:13.488Z,6.04
2017-02-01T13:00:13.479Z,6.08
2017-02-01T13:01:13.464Z,6.12
2017-02-01T13:02:13.446Z,6.19
2017-02-01T13:03:13.438Z,6.31
2017-02-01T13:04:13.427Z,6.3
2017-02-01T13:05:13.469Z,6.28
2017-02-01T13:06:13.405Z,6.28
2017-02-01T13:07:13.393Z,6.22
2017-02-01T13:08:13.387Z,6.22
2017-02-01T13:09:12.985Z,6.17
2017-02-01T13:10:12.981Z,6.25
2017-02-01T13:11:12.968Z,6.17
2017-02-01T13:12:13.349Z,6.18
2017-02-01T13:13:13.330Z,6.14
2017-02-01T13:14:13.318Z,6.11
2017-02-01T13:15:13.310Z,5.97
2017-02-01T13:16:13.304Z,6.09
2017-02-01T13:17:12.901Z,5.96
2017-02-01T13:18:13.288Z,6.04
2017-02-01T13:19:13.265Z,5.97
2017-02-01T13:20:12.875Z,6.03
2017-02-01T13:21:12.469Z,5.96